Alexandria, LA

6:47 PM CDT on August 24, 2016 (GMT -0500)
Charles Place | | Change Station
Active Advisory: Flood Warning

Elev 80 ft 31.28 °N, 92.49 °W | Updated 2 minutes ago

Thunderstorm
Thunderstorm
81.6 °F
Feels Like 90 °F
N
2.0
Wind Variable Wind from NNE
Gusts 2.0 mph

Today
High -- | Low -- °F
--% Chance of Precip.
Yesterday
High -- | Low -- °F
Precip. -- in
Pressure 30.07 in
Visibility 7.0 miles
Clouds Mostly Cloudy 10000 ft
Mostly Cloudy 12000 ft
Heat Index 90 °F
Dew Point 78 °F
Humidity 89%
Rainfall 0.00 in
Snow Depth Not available.
6:41 AM 7:42 PM
Waning Gibbous, 52% visible
SPECI KAEX 242323Z 23003KT 7SM TS BKN100 BKN120 25/24 A3007 RMK AO2 LTG DSNT N AND SW RAE2259 TSE07B17 P0000 T02500244
Pressure 30.07 in
Visibility 7.0 miles
Clouds Mostly Cloudy 10000 ft
Mostly Cloudy 12000 ft
Heat Index 90 °F
Dew Point 78 °F
Humidity 89%
Rainfall 0.00 in
Snow Depth Not available.
6:41 AM 7:42 PM
Waning Gibbous, 52% visible
SPECI KAEX 242323Z 23003KT 7SM TS BKN100 BKN120 25/24 A3007 RMK AO2 LTG DSNT N AND SW RAE2259 TSE07B17 P0000 T02500244

10-Day Weather Forecast

Almanac

Astronomy

Aug. 24, 2016 Rise Set
Actual Time
Civil Twilight
Nautical Twilight
Astronomical Twilight
Moon
Length of Visible Light
Length of Day
Tomorrow will be .
, % of the Moon is Illuminated

Today's Extremes

State Highs State Lows

Community

WunderPhotos

Upload Photos

1,934,739 photos uploaded!

WunderBlog® & News

Nearby

Air Quality

  Air Quality AQ Index Pollutant
Not available.

Snow Depth

Station Depth Elevation

Earthquake Activity

City Distance Mag. Time & Date
Minimum magnitude displayed is 2.5.

Coastal Water Temperatures

Place Temperature

Stations

Nearby Weather Stations

Station Location Temp. Windchill Dew Point Humidity Wind Precip. Elev Updated Type
                   

Watches & Warnings

Flood Warning
Issued: 10:36 AM CDT Aug. 24, 2016 – National Weather Service

The Flood Warning continues for
the Calcasieu River near Glenmora.
* Until late Saturday night... or until the warning is cancelled.
* At 9:45 am Wednesday the stage was 13.6 feet.
* Minor flooding is occurring and minor flooding is forecast.
* Flood stage is 12.0 feet.
* Forecast... the river will continue to fall to below flood stage by
Saturday before midnight.
* Impact... at stages near 14.0 feet... some roads upstream from
Glenmora, including strothers crossing Road near the community of
Calcasieu and Price Crossing Road near Hineston have two to three
feet of water over the Road and are subject to being closed.
Flooding of forested areas near the river will also occur.
* Impact... at stages near 12.0 feet... when the river is falling and
the gauge reading is forecast to be near 12 feet, flooding of
forested areas near the river will occur.


Lat... Lon 3113 9279 3090 9269 3090 9262 3105 9265 3115 9275